sensor_id;sensor_type;location;lat;lon;timestamp;pressure;altitude;pressure_sealevel;temperature;humidity
24160;BME280;62385;41.594;23.808;2024-03-08T00:05:12;95391.53;;;6.96;77.58
24160;BME280;62385;41.594;23.808;2024-03-08T00:11:25;95374.34;;;6.74;78.64
24160;BME280;62385;41.594;23.808;2024-03-08T00:13:52;95369.44;;;6.62;78.46
24160;BME280;62385;41.594;23.808;2024-03-08T00:16:20;95344.94;;;6.52;79.12
24160;BME280;62385;41.594;23.808;2024-03-08T00:23:25;95367.00;;;6.50;81.62
24160;BME280;62385;41.594;23.808;2024-03-08T00:45:43;95393.09;;;6.54;84.31
24160;BME280;62385;41.594;23.808;2024-03-08T00:48:09;95326.25;;;6.00;85.56
24160;BME280;62385;41.594;23.808;2024-03-08T00:50:51;95339.22;;;6.11;85.19
24160;BME280;62385;41.594;23.808;2024-03-08T00:53:16;95344.16;;;5.96;86.03
24160;BME280;62385;41.594;23.808;2024-03-08T00:55:42;95359.03;;;6.15;86.00
24160;BME280;62385;41.594;23.808;2024-03-08T00:58:08;95371.03;;;6.27;86.05
24160;BME280;62385;41.594;23.808;2024-03-08T01:00:34;95315.63;;;5.82;85.90
24160;BME280;62385;41.594;23.808;2024-03-08T01:03:00;95379.00;;;5.90;87.15
24160;BME280;62385;41.594;23.808;2024-03-08T01:05:26;95370.13;;;5.91;86.99
24160;BME280;62385;41.594;23.808;2024-03-08T01:07:51;95373.59;;;5.82;86.28
24160;BME280;62385;41.594;23.808;2024-03-08T01:10:17;95356.13;;;5.81;86.69
24160;BME280;62385;41.594;23.808;2024-03-08T01:12:43;95376.47;;;5.98;86.19
24160;BME280;62385;41.594;23.808;2024-03-08T01:15:09;95341.97;;;5.82;86.58
24160;BME280;62385;41.594;23.808;2024-03-08T01:17:38;95331.47;;;5.73;86.23
24160;BME280;62385;41.594;23.808;2024-03-08T01:20:06;95344.88;;;5.89;86.45
24160;BME280;62385;41.594;23.808;2024-03-08T01:22:32;95335.53;;;6.04;85.64
24160;BME280;62385;41.594;23.808;2024-03-08T01:24:57;95323.66;;;5.90;85.73
24160;BME280;62385;41.594;23.808;2024-03-08T01:27:23;95337.72;;;5.72;85.20
24160;BME280;62385;41.594;23.808;2024-03-08T01:29:51;95371.53;;;5.76;85.38
24160;BME280;62385;41.594;23.808;2024-03-08T01:32:31;95321.44;;;5.58;85.12
24160;BME280;62385;41.594;23.808;2024-03-08T01:35:34;95344.22;;;5.77;85.21
24160;BME280;62385;41.594;23.808;2024-03-08T01:38:00;95340.97;;;5.56;85.90
24160;BME280;62385;41.594;23.808;2024-03-08T01:40:26;95378.53;;;5.48;86.79
24160;BME280;62385;41.594;23.808;2024-03-08T01:42:51;95361.50;;;5.52;87.31
24160;BME280;62385;41.594;23.808;2024-03-08T01:45:51;95387.16;;;5.41;85.07
24160;BME280;62385;41.594;23.808;2024-03-08T01:48:18;95352.31;;;5.00;85.22
24160;BME280;62385;41.594;23.808;2024-03-08T01:50:45;95363.66;;;4.72;85.78
24160;BME280;62385;41.594;23.808;2024-03-08T01:53:11;95390.13;;;4.71;85.66
24160;BME280;62385;41.594;23.808;2024-03-08T01:55:39;95393.03;;;4.68;85.56
24160;BME280;62385;41.594;23.808;2024-03-08T01:58:15;95332.22;;;4.23;85.55
24160;BME280;62385;41.594;23.808;2024-03-08T02:00:59;95350.66;;;4.42;85.43
24160;BME280;62385;41.594;23.808;2024-03-08T02:03:27;95352.56;;;4.21;85.51
24160;BME280;62385;41.594;23.808;2024-03-08T02:05:53;95362.66;;;4.25;85.51
24160;BME280;62385;41.594;23.808;2024-03-08T02:08:20;95364.28;;;4.07;86.28
24160;BME280;62385;41.594;23.808;2024-03-08T02:10:48;95364.88;;;4.39;85.20
24160;BME280;62385;41.594;23.808;2024-03-08T02:13:15;95398.97;;;4.79;84.69
24160;BME280;62385;41.594;23.808;2024-03-08T02:16:10;95366.59;;;4.88;81.83
24160;BME280;62385;41.594;23.808;2024-03-08T02:18:36;95386.63;;;4.60;84.38
24160;BME280;62385;41.594;23.808;2024-03-08T02:21:03;95349.66;;;4.24;83.85
24160;BME280;62385;41.594;23.808;2024-03-08T02:23:29;95395.22;;;4.82;84.05
24160;BME280;62385;41.594;23.808;2024-03-08T02:26:02;95402.16;;;4.73;84.63
24160;BME280;62385;41.594;23.808;2024-03-08T02:28:30;95407.41;;;5.02;83.20
24160;BME280;62385;41.594;23.808;2024-03-08T02:30:56;95415.72;;;5.07;83.81
24160;BME280;62385;41.594;23.808;2024-03-08T02:33:22;95414.34;;;4.93;83.24
24160;BME280;62385;41.594;23.808;2024-03-08T02:35:49;95420.91;;;4.40;83.13
24160;BME280;62385;41.594;23.808;2024-03-08T02:38:16;95419.00;;;4.02;83.81
24160;BME280;62385;41.594;23.808;2024-03-08T02:40:42;95402.56;;;3.69;84.54
24160;BME280;62385;41.594;23.808;2024-03-08T02:51:49;95383.13;;;3.82;83.66
24160;BME280;62385;41.594;23.808;2024-03-08T02:54:48;95400.22;;;4.06;83.61
24160;BME280;62385;41.594;23.808;2024-03-08T02:57:13;95405.84;;;3.92;82.83
24160;BME280;62385;41.594;23.808;2024-03-08T02:59:40;95382.84;;;3.75;83.09
24160;BME280;62385;41.594;23.808;2024-03-08T03:02:07;95392.78;;;3.71;82.41
24160;BME280;62385;41.594;23.808;2024-03-08T03:04:32;95442.22;;;3.97;82.47
24160;BME280;62385;41.594;23.808;2024-03-08T03:07:00;95438.53;;;3.79;83.94
24160;BME280;62385;41.594;23.808;2024-03-08T03:09:26;95439.63;;;3.76;83.78
24160;BME280;62385;41.594;23.808;2024-03-08T03:11:53;95408.66;;;3.49;84.13
24160;BME280;62385;41.594;23.808;2024-03-08T03:14:21;95409.03;;;3.65;83.51
24160;BME280;62385;41.594;23.808;2024-03-08T03:16:47;95397.50;;;3.47;83.35
24160;BME280;62385;41.594;23.808;2024-03-08T03:19:14;95398.63;;;3.85;82.54
24160;BME280;62385;41.594;23.808;2024-03-08T03:21:43;95423.56;;;4.00;82.24
24160;BME280;62385;41.594;23.808;2024-03-08T03:24:13;95395.66;;;3.68;83.44
24160;BME280;62385;41.594;23.808;2024-03-08T03:27:12;95378.94;;;3.69;82.12
24160;BME280;62385;41.594;23.808;2024-03-08T03:29:41;95417.22;;;3.72;83.45
24160;BME280;62385;41.594;23.808;2024-03-08T03:32:14;95415.44;;;3.72;83.72
24160;BME280;62385;41.594;23.808;2024-03-08T03:34:40;95397.47;;;3.78;82.63
24160;BME280;62385;41.594;23.808;2024-03-08T03:37:06;95447.72;;;3.94;82.71
24160;BME280;62385;41.594;23.808;2024-03-08T03:39:38;95418.41;;;3.58;83.40
24160;BME280;62385;41.594;23.808;2024-03-08T03:42:19;95440.59;;;3.75;82.68
24160;BME280;62385;41.594;23.808;2024-03-08T03:44:48;95445.56;;;3.78;83.19
24160;BME280;62385;41.594;23.808;2024-03-08T03:47:16;95454.56;;;3.76;83.81
24160;BME280;62385;41.594;23.808;2024-03-08T03:49:52;95420.41;;;3.76;83.55
24160;BME280;62385;41.594;23.808;2024-03-08T04:00:26;95430.16;;;3.85;82.49
24160;BME280;62385;41.594;23.808;2024-03-08T04:02:53;95455.81;;;3.81;82.25
24160;BME280;62385;41.594;23.808;2024-03-08T04:08:42;95392.06;;;2.98;83.75
24160;BME280;62385;41.594;23.808;2024-03-08T04:11:47;95413.81;;;2.77;85.29
24160;BME280;62385;41.594;23.808;2024-03-08T04:14:23;95453.66;;;3.24;83.98
24160;BME280;62385;41.594;23.808;2024-03-08T04:17:18;95457.19;;;3.13;83.87
24160;BME280;62385;41.594;23.808;2024-03-08T04:19:43;95424.59;;;2.95;84.15
24160;BME280;62385;41.594;23.808;2024-03-08T04:22:12;95430.59;;;2.86;84.39
24160;BME280;62385;41.594;23.808;2024-03-08T04:25:10;95398.09;;;2.77;84.24
24160;BME280;62385;41.594;23.808;2024-03-08T04:28:24;95432.22;;;2.66;85.02
24160;BME280;62385;41.594;23.808;2024-03-08T04:37:26;95470.53;;;2.90;84.88
24160;BME280;62385;41.594;23.808;2024-03-08T04:39:51;95446.56;;;2.83;84.98
24160;BME280;62385;41.594;23.808;2024-03-08T04:44:59;95442.38;;;2.92;84.82
24160;BME280;62385;41.594;23.808;2024-03-08T04:47:25;95450.50;;;2.89;84.89
24160;BME280;62385;41.594;23.808;2024-03-08T04:49:50;95417.88;;;2.82;85.30
24160;BME280;62385;41.594;23.808;2024-03-08T04:52:16;95426.28;;;2.96;84.56
24160;BME280;62385;41.594;23.808;2024-03-08T04:54:42;95436.38;;;3.01;83.80
24160;BME280;62385;41.594;23.808;2024-03-08T04:57:08;95441.63;;;3.01;84.46
24160;BME280;62385;41.594;23.808;2024-03-08T04:59:33;95448.13;;;3.38;84.08
24160;BME280;62385;41.594;23.808;2024-03-08T05:01:59;95481.28;;;3.90;83.24
24160;BME280;62385;41.594;23.808;2024-03-08T05:04:25;95489.81;;;3.83;84.47
24160;BME280;62385;41.594;23.808;2024-03-08T05:06:50;95454.50;;;3.66;83.89
24160;BME280;62385;41.594;23.808;2024-03-08T05:09:16;95483.28;;;3.56;84.02
24160;BME280;62385;41.594;23.808;2024-03-08T05:11:42;95438.50;;;3.48;83.39
24160;BME280;62385;41.594;23.808;2024-03-08T05:14:12;95448.31;;;3.46;84.00
24160;BME280;62385;41.594;23.808;2024-03-08T05:16:45;95503.53;;;3.45;85.33
24160;BME280;62385;41.594;23.808;2024-03-08T05:19:19;95501.34;;;3.50;85.76
24160;BME280;62385;41.594;23.808;2024-03-08T05:21:48;95514.88;;;3.13;84.62
24160;BME280;62385;41.594;23.808;2024-03-08T05:24:14;95502.94;;;2.89;85.19
24160;BME280;62385;41.594;23.808;2024-03-08T05:26:43;95516.69;;;3.13;84.68
24160;BME280;62385;41.594;23.808;2024-03-08T05:29:09;95521.38;;;3.30;84.16
24160;BME280;62385;41.594;23.808;2024-03-08T05:31:48;95520.75;;;3.06;85.22
24160;BME280;62385;41.594;23.808;2024-03-08T05:34:14;95522.91;;;3.33;85.42
24160;BME280;62385;41.594;23.808;2024-03-08T05:36:43;95522.34;;;3.29;84.71
24160;BME280;62385;41.594;23.808;2024-03-08T05:39:11;95522.13;;;3.21;84.94
24160;BME280;62385;41.594;23.808;2024-03-08T05:41:38;95523.47;;;3.36;84.43
24160;BME280;62385;41.594;23.808;2024-03-08T05:44:04;95517.94;;;3.50;83.88
24160;BME280;62385;41.594;23.808;2024-03-08T05:46:30;95512.50;;;3.84;82.19
24160;BME280;62385;41.594;23.808;2024-03-08T05:48:55;95523.97;;;3.62;82.93
24160;BME280;62385;41.594;23.808;2024-03-08T05:51:23;95521.00;;;3.97;82.02
24160;BME280;62385;41.594;23.808;2024-03-08T05:53:49;95505.44;;;4.05;81.79
24160;BME280;62385;41.594;23.808;2024-03-08T05:56:15;95517.47;;;4.38;81.16
24160;BME280;62385;41.594;23.808;2024-03-08T05:58:40;95515.16;;;4.54;81.44
24160;BME280;62385;41.594;23.808;2024-03-08T06:01:05;95518.25;;;4.69;80.99
24160;BME280;62385;41.594;23.808;2024-03-08T06:03:34;95522.63;;;4.98;79.06
24160;BME280;62385;41.594;23.808;2024-03-08T06:05:59;95533.41;;;4.95;79.39
24160;BME280;62385;41.594;23.808;2024-03-08T06:08:25;95523.56;;;4.88;78.88
24160;BME280;62385;41.594;23.808;2024-03-08T06:10:55;95527.31;;;4.95;80.63
24160;BME280;62385;41.594;23.808;2024-03-08T06:13:21;95531.53;;;5.45;78.95
24160;BME280;62385;41.594;23.808;2024-03-08T06:15:48;95529.72;;;5.36;80.10
24160;BME280;62385;41.594;23.808;2024-03-08T06:18:14;95547.03;;;5.39;80.36
24160;BME280;62385;41.594;23.808;2024-03-08T06:20:40;95541.63;;;5.59;80.19
24160;BME280;62385;41.594;23.808;2024-03-08T06:23:09;95551.47;;;5.38;80.78
24160;BME280;62385;41.594;23.808;2024-03-08T06:25:34;95541.25;;;5.54;81.21
24160;BME280;62385;41.594;23.808;2024-03-08T06:28:00;95552.34;;;5.87;79.03
24160;BME280;62385;41.594;23.808;2024-03-08T06:30:26;95504.34;;;5.35;79.70
24160;BME280;62385;41.594;23.808;2024-03-08T06:32:51;95546.47;;;5.74;80.54
24160;BME280;62385;41.594;23.808;2024-03-08T06:35:17;95541.25;;;5.54;78.98
24160;BME280;62385;41.594;23.808;2024-03-08T06:37:42;95561.47;;;5.83;79.07
24160;BME280;62385;41.594;23.808;2024-03-08T06:40:09;95545.09;;;5.79;78.64
24160;BME280;62385;41.594;23.808;2024-03-08T06:42:39;95552.41;;;6.24;77.90
24160;BME280;62385;41.594;23.808;2024-03-08T06:45:05;95543.13;;;6.20;77.60
24160;BME280;62385;41.594;23.808;2024-03-08T06:47:31;95548.63;;;6.26;77.80
24160;BME280;62385;41.594;23.808;2024-03-08T06:49:58;95548.72;;;6.44;76.30
24160;BME280;62385;41.594;23.808;2024-03-08T06:52:24;95547.16;;;6.51;77.53
24160;BME280;62385;41.594;23.808;2024-03-08T06:54:49;95564.97;;;6.49;78.17
24160;BME280;62385;41.594;23.808;2024-03-08T06:57:15;95559.69;;;6.76;77.44
24160;BME280;62385;41.594;23.808;2024-03-08T06:59:42;95559.91;;;6.65;78.60
24160;BME280;62385;41.594;23.808;2024-03-08T07:02:07;95557.25;;;6.65;77.84
24160;BME280;62385;41.594;23.808;2024-03-08T07:04:36;95546.81;;;6.73;77.74
24160;BME280;62385;41.594;23.808;2024-03-08T07:07:06;95550.59;;;6.71;78.31
24160;BME280;62385;41.594;23.808;2024-03-08T07:09:36;95561.06;;;6.53;77.85
24160;BME280;62385;41.594;23.808;2024-03-08T07:12:02;95546.56;;;6.94;76.26
24160;BME280;62385;41.594;23.808;2024-03-08T07:14:27;95539.78;;;6.91;76.48
24160;BME280;62385;41.594;23.808;2024-03-08T07:16:53;95560.25;;;7.07;76.70
24160;BME280;62385;41.594;23.808;2024-03-08T07:19:19;95549.59;;;6.99;76.26
24160;BME280;62385;41.594;23.808;2024-03-08T07:21:44;95526.19;;;6.86;74.39
24160;BME280;62385;41.594;23.808;2024-03-08T07:24:11;95551.44;;;7.34;74.75
24160;BME280;62385;41.594;23.808;2024-03-08T07:26:43;95560.50;;;7.31;74.06
24160;BME280;62385;41.594;23.808;2024-03-08T07:29:09;95543.63;;;7.42;73.37
24160;BME280;62385;41.594;23.808;2024-03-08T07:31:34;95559.16;;;7.63;73.23
24160;BME280;62385;41.594;23.808;2024-03-08T07:34:02;95553.59;;;7.66;72.63
24160;BME280;62385;41.594;23.808;2024-03-08T07:36:28;95535.75;;;7.85;72.25
24160;BME280;62385;41.594;23.808;2024-03-08T07:38:54;95552.31;;;8.13;71.23
24160;BME280;62385;41.594;23.808;2024-03-08T07:41:19;95551.50;;;8.30;69.56
24160;BME280;62385;41.594;23.808;2024-03-08T07:43:45;95543.09;;;8.17;69.22
24160;BME280;62385;41.594;23.808;2024-03-08T07:46:11;95550.41;;;8.41;69.46
24160;BME280;62385;41.594;23.808;2024-03-08T07:48:38;95538.28;;;8.13;68.48
24160;BME280;62385;41.594;23.808;2024-03-08T07:51:05;95538.50;;;8.45;68.58
24160;BME280;62385;41.594;23.808;2024-03-08T07:53:31;95526.84;;;8.56;66.72
24160;BME280;62385;41.594;23.808;2024-03-08T07:55:56;95538.44;;;8.63;67.49
24160;BME280;62385;41.594;23.808;2024-03-08T07:58:22;95542.59;;;8.31;68.63
24160;BME280;62385;41.594;23.808;2024-03-08T08:00:49;95544.41;;;8.57;66.95
24160;BME280;62385;41.594;23.808;2024-03-08T08:03:14;95532.94;;;8.48;67.12
24160;BME280;62385;41.594;23.808;2024-03-08T08:05:41;95537.44;;;8.56;66.43
24160;BME280;62385;41.594;23.808;2024-03-08T08:08:10;95539.78;;;8.67;65.97
24160;BME280;62385;41.594;23.808;2024-03-08T08:10:36;95518.31;;;8.70;65.87
24160;BME280;62385;41.594;23.808;2024-03-08T08:13:02;95544.16;;;8.76;67.30
24160;BME280;62385;41.594;23.808;2024-03-08T08:15:30;95531.66;;;8.94;66.75
24160;BME280;62385;41.594;23.808;2024-03-08T08:17:55;95517.66;;;9.10;64.65
24160;BME280;62385;41.594;23.808;2024-03-08T08:20:21;95530.97;;;9.50;65.57
24160;BME280;62385;41.594;23.808;2024-03-08T08:22:47;95532.03;;;9.15;66.42
24160;BME280;62385;41.594;23.808;2024-03-08T08:25:13;95510.13;;;8.89;64.40
24160;BME280;62385;41.594;23.808;2024-03-08T08:27:41;95524.25;;;9.06;65.66
24160;BME280;62385;41.594;23.808;2024-03-08T08:30:08;95512.94;;;9.54;64.23
24160;BME280;62385;41.594;23.808;2024-03-08T08:32:35;95510.97;;;9.88;63.21
24160;BME280;62385;41.594;23.808;2024-03-08T08:35:09;95512.94;;;9.78;61.73
24160;BME280;62385;41.594;23.808;2024-03-08T08:37:40;95493.91;;;9.83;60.67
24160;BME280;62385;41.594;23.808;2024-03-08T08:40:07;95502.69;;;10.15;60.12
24160;BME280;62385;41.594;23.808;2024-03-08T08:42:40;95493.22;;;10.29;60.36
24160;BME280;62385;41.594;23.808;2024-03-08T08:45:06;95504.69;;;10.30;58.42
24160;BME280;62385;41.594;23.808;2024-03-08T08:47:36;95497.66;;;10.45;59.54
24160;BME280;62385;41.594;23.808;2024-03-08T08:50:02;95481.72;;;10.53;60.18
24160;BME280;62385;41.594;23.808;2024-03-08T08:52:29;95491.53;;;10.91;59.89
24160;BME280;62385;41.594;23.808;2024-03-08T08:54:55;95496.34;;;10.96;60.69
24160;BME280;62385;41.594;23.808;2024-03-08T08:57:21;95493.91;;;11.17;60.15
24160;BME280;62385;41.594;23.808;2024-03-08T08:59:47;95498.41;;;10.78;59.65
24160;BME280;62385;41.594;23.808;2024-03-08T09:02:13;95474.72;;;10.68;59.53
24160;BME280;62385;41.594;23.808;2024-03-08T09:04:42;95493.50;;;11.05;57.70
24160;BME280;62385;41.594;23.808;2024-03-08T09:07:08;95474.50;;;10.78;56.97
24160;BME280;62385;41.594;23.808;2024-03-08T09:09:34;95487.66;;;11.02;56.98
24160;BME280;62385;41.594;23.808;2024-03-08T09:12:00;95479.50;;;11.11;56.52
24160;BME280;62385;41.594;23.808;2024-03-08T09:14:26;95460.09;;;11.03;56.17
24160;BME280;62385;41.594;23.808;2024-03-08T09:16:52;95467.41;;;11.32;57.78
24160;BME280;62385;41.594;23.808;2024-03-08T09:19:17;95476.44;;;11.76;58.10
24160;BME280;62385;41.594;23.808;2024-03-08T09:21:45;95477.41;;;11.83;56.06
24160;BME280;62385;41.594;23.808;2024-03-08T09:24:10;95469.84;;;12.10;54.22
24160;BME280;62385;41.594;23.808;2024-03-08T09:26:36;95472.47;;;11.72;57.15
24160;BME280;62385;41.594;23.808;2024-03-08T09:29:02;95455.91;;;11.62;53.52
24160;BME280;62385;41.594;23.808;2024-03-08T09:31:27;95472.63;;;12.16;53.03
24160;BME280;62385;41.594;23.808;2024-03-08T09:33:53;95464.44;;;12.18;53.00
24160;BME280;62385;41.594;23.808;2024-03-08T09:36:19;95468.28;;;12.15;52.61
24160;BME280;62385;41.594;23.808;2024-03-08T09:38:44;95466.13;;;12.33;53.07
24160;BME280;62385;41.594;23.808;2024-03-08T09:41:10;95457.56;;;11.86;54.04
24160;BME280;62385;41.594;23.808;2024-03-08T09:43:36;95469.97;;;12.31;54.24
24160;BME280;62385;41.594;23.808;2024-03-08T09:46:03;95462.63;;;12.33;53.88
24160;BME280;62385;41.594;23.808;2024-03-08T09:48:29;95466.38;;;12.24;53.37
24160;BME280;62385;41.594;23.808;2024-03-08T09:50:55;95456.94;;;12.36;53.02
24160;BME280;62385;41.594;23.808;2024-03-08T09:53:22;95458.88;;;12.57;50.88
24160;BME280;62385;41.594;23.808;2024-03-08T09:55:47;95465.94;;;12.93;52.29
24160;BME280;62385;41.594;23.808;2024-03-08T09:58:15;95451.69;;;13.16;50.71
24160;BME280;62385;41.594;23.808;2024-03-08T10:00:54;95467.97;;;12.91;48.52
24160;BME280;62385;41.594;23.808;2024-03-08T10:03:19;95452.00;;;12.62;49.75
24160;BME280;62385;41.594;23.808;2024-03-08T10:05:45;95468.78;;;12.33;48.65
24160;BME280;62385;41.594;23.808;2024-03-08T10:08:12;95472.16;;;12.13;48.88
24160;BME280;62385;41.594;23.808;2024-03-08T10:10:38;95454.91;;;12.09;50.02
24160;BME280;62385;41.594;23.808;2024-03-08T10:13:09;95462.06;;;11.85;52.67
24160;BME280;62385;41.594;23.808;2024-03-08T10:15:35;95463.97;;;12.14;53.17
24160;BME280;62385;41.594;23.808;2024-03-08T10:18:01;95464.25;;;12.05;51.77
24160;BME280;62385;41.594;23.808;2024-03-08T10:20:30;95468.22;;;12.23;51.48
24160;BME280;62385;41.594;23.808;2024-03-08T10:23:03;95473.00;;;12.28;48.88
24160;BME280;62385;41.594;23.808;2024-03-08T10:25:31;95469.72;;;12.40;45.72
24160;BME280;62385;41.594;23.808;2024-03-08T10:27:57;95457.34;;;12.62;46.41
24160;BME280;62385;41.594;23.808;2024-03-08T10:30:22;95456.13;;;12.65;48.83
24160;BME280;62385;41.594;23.808;2024-03-08T10:32:48;95454.53;;;12.85;48.68
24160;BME280;62385;41.594;23.808;2024-03-08T10:35:15;95459.94;;;13.06;49.61
24160;BME280;62385;41.594;23.808;2024-03-08T10:37:49;95458.59;;;12.95;49.69
24160;BME280;62385;41.594;23.808;2024-03-08T10:40:24;95445.25;;;13.10;48.67
24160;BME280;62385;41.594;23.808;2024-03-08T10:42:54;95455.28;;;12.64;50.57
24160;BME280;62385;41.594;23.808;2024-03-08T10:48:20;95458.78;;;12.79;49.51
24160;BME280;62385;41.594;23.808;2024-03-08T10:50:49;95447.28;;;12.20;49.56
24160;BME280;62385;41.594;23.808;2024-03-08T10:53:17;95462.00;;;12.45;48.22
24160;BME280;62385;41.594;23.808;2024-03-08T10:55:44;95455.75;;;12.38;49.01
24160;BME280;62385;41.594;23.808;2024-03-08T10:58:09;95448.94;;;12.94;48.56
24160;BME280;62385;41.594;23.808;2024-03-08T11:00:36;95454.91;;;12.67;49.29
24160;BME280;62385;41.594;23.808;2024-03-08T11:03:03;95449.69;;;12.59;49.86
24160;BME280;62385;41.594;23.808;2024-03-08T11:05:36;95453.19;;;12.74;48.50
24160;BME280;62385;41.594;23.808;2024-03-08T11:08:23;95441.25;;;12.56;48.64
24160;BME280;62385;41.594;23.808;2024-03-08T11:10:53;95441.25;;;12.41;47.38
24160;BME280;62385;41.594;23.808;2024-03-08T11:13:40;95451.63;;;12.21;51.55
24160;BME280;62385;41.594;23.808;2024-03-08T11:16:10;95444.44;;;12.51;49.26
24160;BME280;62385;41.594;23.808;2024-03-08T11:18:36;95443.38;;;12.75;49.55
24160;BME280;62385;41.594;23.808;2024-03-08T11:21:08;95446.66;;;12.33;49.67
24160;BME280;62385;41.594;23.808;2024-03-08T11:23:38;95448.03;;;12.87;49.79
24160;BME280;62385;41.594;23.808;2024-03-08T11:26:18;95445.09;;;11.86;51.50
24160;BME280;62385;41.594;23.808;2024-03-08T11:28:44;95423.47;;;11.89;51.41
24160;BME280;62385;41.594;23.808;2024-03-08T11:33:36;95446.41;;;11.14;53.50
24160;BME280;62385;41.594;23.808;2024-03-08T11:36:26;95451.00;;;11.28;54.87
24160;BME280;62385;41.594;23.808;2024-03-08T11:38:52;95457.03;;;11.45;52.42
24160;BME280;62385;41.594;23.808;2024-03-08T11:41:20;95441.41;;;10.96;51.89
24160;BME280;62385;41.594;23.808;2024-03-08T11:43:47;95453.63;;;11.05;51.96
24160;BME280;62385;41.594;23.808;2024-03-08T11:46:14;95444.25;;;11.18;53.38
24160;BME280;62385;41.594;23.808;2024-03-08T11:48:41;95446.41;;;11.14;53.86
24160;BME280;62385;41.594;23.808;2024-03-08T11:51:14;95450.31;;;11.03;52.98
24160;BME280;62385;41.594;23.808;2024-03-08T11:53:41;95436.69;;;11.06;52.80
24160;BME280;62385;41.594;23.808;2024-03-08T11:56:08;95449.06;;;11.22;51.42
24160;BME280;62385;41.594;23.808;2024-03-08T11:58:34;95451.56;;;11.46;51.54
24160;BME280;62385;41.594;23.808;2024-03-08T12:01:05;95439.50;;;11.58;51.62
24160;BME280;62385;41.594;23.808;2024-03-08T12:03:35;95438.44;;;11.68;49.83
24160;BME280;62385;41.594;23.808;2024-03-08T12:06:01;95426.72;;;12.87;48.93
24160;BME280;62385;41.594;23.808;2024-03-08T12:08:28;95425.75;;;13.67;45.76
24160;BME280;62385;41.594;23.808;2024-03-08T12:10:55;95433.88;;;12.72;46.75
24160;BME280;62385;41.594;23.808;2024-03-08T12:13:30;95436.97;;;12.02;47.96
24160;BME280;62385;41.594;23.808;2024-03-08T12:16:00;95439.81;;;12.01;47.60
24160;BME280;62385;41.594;23.808;2024-03-08T12:18:26;95444.19;;;12.46;46.79
24160;BME280;62385;41.594;23.808;2024-03-08T12:21:10;95421.03;;;12.61;47.12
24160;BME280;62385;41.594;23.808;2024-03-08T12:23:36;95425.47;;;13.05;46.01
24160;BME280;62385;41.594;23.808;2024-03-08T12:26:10;95432.47;;;13.06;44.88
24160;BME280;62385;41.594;23.808;2024-03-08T12:28:39;95426.66;;;12.66;45.81
24160;BME280;62385;41.594;23.808;2024-03-08T12:31:07;95439.25;;;12.58;46.17
24160;BME280;62385;41.594;23.808;2024-03-08T12:34:00;95435.56;;;12.59;47.04
24160;BME280;62385;41.594;23.808;2024-03-08T12:36:24;95430.03;;;12.31;47.53
24160;BME280;62385;41.594;23.808;2024-03-08T12:38:51;95430.88;;;11.79;53.36
24160;BME280;62385;41.594;23.808;2024-03-08T12:41:18;95435.53;;;11.77;51.87
24160;BME280;62385;41.594;23.808;2024-03-08T12:43:44;95426.47;;;12.24;50.57
24160;BME280;62385;41.594;23.808;2024-03-08T12:46:16;95411.59;;;13.24;48.90
24160;BME280;62385;41.594;23.808;2024-03-08T12:48:42;95400.69;;;13.61;49.26
24160;BME280;62385;41.594;23.808;2024-03-08T12:51:19;95414.06;;;13.89;48.26
24160;BME280;62385;41.594;23.808;2024-03-08T12:53:46;95422.66;;;13.63;48.77
24160;BME280;62385;41.594;23.808;2024-03-08T12:56:12;95424.13;;;13.66;46.93
24160;BME280;62385;41.594;23.808;2024-03-08T12:58:39;95417.84;;;13.02;49.53
24160;BME280;62385;41.594;23.808;2024-03-08T13:01:06;95425.25;;;13.35;48.80
24160;BME280;62385;41.594;23.808;2024-03-08T13:03:35;95426.69;;;13.17;47.77
24160;BME280;62385;41.594;23.808;2024-03-08T13:06:04;95422.63;;;13.42;48.50
24160;BME280;62385;41.594;23.808;2024-03-08T13:08:37;95407.22;;;13.37;45.56
24160;BME280;62385;41.594;23.808;2024-03-08T13:11:06;95425.91;;;12.43;44.71
24160;BME280;62385;41.594;23.808;2024-03-08T13:13:40;95423.69;;;12.46;45.77
24160;BME280;62385;41.594;23.808;2024-03-08T13:16:08;95424.34;;;12.78;45.82
24160;BME280;62385;41.594;23.808;2024-03-08T13:18:35;95417.19;;;12.64;45.50
24160;BME280;62385;41.594;23.808;2024-03-08T13:21:00;95396.94;;;12.84;46.93
24160;BME280;62385;41.594;23.808;2024-03-08T13:23:32;95415.78;;;13.54;46.83
24160;BME280;62385;41.594;23.808;2024-03-08T13:26:12;95424.06;;;12.73;46.43
24160;BME280;62385;41.594;23.808;2024-03-08T13:28:45;95416.63;;;12.83;46.30
24160;BME280;62385;41.594;23.808;2024-03-08T13:31:10;95413.38;;;13.17;46.51
24160;BME280;62385;41.594;23.808;2024-03-08T13:33:37;95415.44;;;13.21;45.68
24160;BME280;62385;41.594;23.808;2024-03-08T13:36:06;95406.53;;;12.78;45.76
24160;BME280;62385;41.594;23.808;2024-03-08T13:38:38;95420.91;;;12.99;47.18
24160;BME280;62385;41.594;23.808;2024-03-08T13:41:03;95410.22;;;12.63;45.79
24160;BME280;62385;41.594;23.808;2024-03-08T13:43:29;95417.56;;;12.75;47.16
24160;BME280;62385;41.594;23.808;2024-03-08T13:45:57;95405.44;;;13.09;45.14
24160;BME280;62385;41.594;23.808;2024-03-08T13:48:22;95405.75;;;12.99;46.55
24160;BME280;62385;41.594;23.808;2024-03-08T13:50:48;95413.25;;;12.45;46.75
24160;BME280;62385;41.594;23.808;2024-03-08T13:53:15;95413.81;;;13.06;46.45
24160;BME280;62385;41.594;23.808;2024-03-08T13:55:41;95405.72;;;13.14;45.50
24160;BME280;62385;41.594;23.808;2024-03-08T13:58:06;95396.03;;;12.91;46.50
24160;BME280;62385;41.594;23.808;2024-03-08T14:00:38;95382.50;;;12.93;43.99
24160;BME280;62385;41.594;23.808;2024-03-08T14:03:03;95400.44;;;12.84;45.66
24160;BME280;62385;41.594;23.808;2024-03-08T14:05:32;95413.91;;;12.98;46.47
24160;BME280;62385;41.594;23.808;2024-03-08T14:08:02;95403.44;;;13.11;47.13
24160;BME280;62385;41.594;23.808;2024-03-08T14:10:29;95415.78;;;12.68;49.69